createdAt,value
2023-05-06T00:00:41.037Z,4.85
2023-05-06T00:03:13.682Z,4.85
2023-05-06T00:05:47.624Z,7.90
2023-05-06T00:08:20.422Z,5.05
2023-05-06T00:10:53.083Z,8.10
2023-05-06T00:13:25.541Z,5.45
2023-05-06T00:15:58.053Z,5.60
2023-05-06T00:18:30.438Z,7.55
2023-05-06T00:21:02.830Z,5.60
2023-05-06T00:23:35.337Z,5.07
2023-05-06T00:26:07.814Z,4.97
2023-05-06T00:28:40.465Z,5.38
2023-05-06T00:31:12.857Z,5.78
2023-05-06T00:33:45.368Z,6.22
2023-05-06T00:36:18.602Z,7.60
2023-05-06T00:38:51.370Z,7.18
2023-05-06T00:41:23.837Z,5.53
2023-05-06T00:43:57.633Z,6.00
2023-05-06T00:46:30.475Z,3.40
2023-05-06T00:49:03.886Z,3.40
2023-05-06T00:51:37.261Z,3.47
2023-05-06T00:54:10.120Z,4.07
2023-05-06T00:56:42.679Z,3.60
2023-05-06T00:59:15.614Z,5.95
2023-05-06T01:01:48.036Z,5.57
2023-05-06T01:04:22.579Z,4.88
2023-05-06T01:07:24.771Z,5.35
2023-05-06T01:10:02.317Z,4.85
2023-05-06T01:12:48.323Z,4.32
2023-05-06T01:15:39.144Z,4.53
2023-05-06T01:18:17.097Z,4.10
2023-05-06T01:20:52.629Z,5.68
2023-05-06T01:23:25.914Z,5.75
2023-05-06T01:25:58.289Z,4.80
2023-05-06T01:28:30.730Z,4.33
2023-05-06T01:31:09.291Z,4.30
2023-05-06T01:33:53.643Z,4.75
2023-05-06T01:36:55.025Z,5.53
2023-05-06T01:39:30.871Z,4.50
2023-05-06T01:42:04.543Z,4.40
2023-05-06T01:44:38.022Z,3.78
2023-05-06T01:47:12.046Z,5.03
2023-05-06T01:49:45.327Z,4.68
2023-05-06T01:52:17.689Z,4.18
2023-05-06T01:54:50.099Z,5.60
2023-05-06T01:57:22.463Z,5.37
2023-05-06T01:59:54.843Z,4.20
2023-05-06T02:02:29.665Z,4.88
2023-05-06T02:05:02.457Z,6.43
2023-05-06T02:07:35.210Z,5.00
2023-05-06T02:10:08.834Z,4.57
2023-05-06T02:12:44.002Z,4.13
2023-05-06T02:15:16.765Z,4.20
2023-05-06T02:17:49.541Z,3.15
2023-05-06T02:20:22.019Z,3.92
2023-05-06T02:22:54.395Z,3.73
2023-05-06T02:25:27.815Z,3.58
2023-05-06T02:28:00.148Z,5.27
2023-05-06T02:30:32.619Z,3.93
2023-05-06T02:33:05.243Z,4.15
2023-05-06T02:35:37.627Z,4.18
2023-05-06T02:38:10.236Z,4.57
2023-05-06T02:40:43.409Z,3.28
2023-05-06T02:43:16.128Z,3.90
2023-05-06T02:45:49.328Z,5.95
2023-05-06T02:48:21.812Z,3.88
2023-05-06T02:50:54.176Z,5.00
2023-05-06T02:53:26.548Z,4.10
2023-05-06T02:55:59.333Z,3.42
2023-05-06T02:58:31.747Z,3.43
2023-05-06T03:01:04.155Z,3.35
2023-05-06T03:03:36.592Z,3.70
2023-05-06T03:06:08.926Z,2.55
2023-05-06T03:08:42.435Z,2.92
2023-05-06T03:11:14.755Z,3.50
2023-05-06T03:13:47.168Z,3.50
2023-05-06T03:16:20.251Z,4.28
2023-05-06T03:18:56.137Z,3.30
2023-05-06T03:21:29.418Z,3.17
2023-05-06T03:24:01.895Z,4.05
2023-05-06T03:26:35.929Z,2.53
2023-05-06T03:29:08.602Z,4.22
2023-05-06T03:31:42.050Z,4.15
2023-05-06T03:34:15.324Z,4.07
2023-05-06T03:36:47.926Z,4.68
2023-05-06T03:39:20.982Z,4.18
2023-05-06T03:41:53.460Z,4.55
2023-05-06T03:44:25.839Z,3.73
2023-05-06T03:46:58.246Z,3.38
2023-05-06T03:49:31.175Z,3.25
2023-05-06T03:52:03.791Z,7.43
2023-05-06T03:54:36.356Z,3.65
2023-05-06T03:57:10.437Z,3.97
2023-05-06T03:59:43.644Z,3.85
2023-05-06T04:02:16.557Z,5.03
2023-05-06T04:04:49.036Z,3.60
2023-05-06T04:07:21.483Z,3.87
2023-05-06T04:09:53.963Z,4.47
2023-05-06T04:12:27.413Z,3.25
2023-05-06T04:20:11.596Z,3.47
2023-05-06T04:22:45.168Z,4.15
2023-05-06T04:25:19.597Z,3.83
2023-05-06T04:27:53.354Z,3.65
2023-05-06T04:30:27.639Z,3.97
2023-05-06T04:33:04.047Z,3.65
2023-05-06T04:35:38.265Z,2.30
2023-05-06T04:38:15.163Z,2.78
2023-05-06T04:40:48.132Z,3.65
2023-05-06T04:43:20.793Z,4.07
2023-05-06T04:45:57.423Z,3.92
2023-05-06T04:48:33.994Z,5.03
2023-05-06T04:51:09.074Z,4.40
2023-05-06T04:53:42.502Z,3.63
2023-05-06T04:56:15.418Z,3.53
2023-05-06T04:58:48.285Z,4.72
2023-05-06T05:01:20.970Z,6.65
2023-05-06T05:03:53.476Z,2.50
2023-05-06T05:06:26.875Z,5.38
2023-05-06T05:08:59.759Z,7.38
2023-05-06T05:11:33.850Z,12.75
2023-05-06T05:14:06.272Z,7.72
2023-05-06T05:16:39.084Z,8.73
2023-05-06T05:19:11.783Z,5.43
2023-05-06T05:21:46.356Z,5.22
2023-05-06T05:24:19.454Z,7.45
2023-05-06T05:26:51.933Z,7.20
2023-05-06T05:29:24.283Z,18.88
2023-05-06T05:31:57.592Z,6.20
2023-05-06T05:34:30.377Z,9.95
2023-05-06T05:39:36.797Z,8.40
2023-05-06T05:42:09.320Z,8.20
2023-05-06T05:44:44.513Z,8.32
2023-05-06T05:47:17.680Z,5.60
2023-05-06T05:49:50.983Z,9.30
2023-05-06T05:52:25.596Z,11.20
2023-05-06T05:54:57.914Z,11.65
2023-05-06T05:57:30.846Z,10.02
2023-05-06T06:00:04.804Z,11.23
2023-05-06T06:02:38.274Z,11.57
2023-05-06T06:05:11.305Z,8.43
2023-05-06T06:07:45.644Z,9.30
2023-05-06T06:10:18.979Z,4.20
2023-05-06T06:12:51.529Z,7.10
2023-05-06T06:15:27.575Z,6.10
2023-05-06T06:18:00.161Z,9.55
2023-05-06T06:20:35.400Z,7.85
2023-05-06T06:23:07.791Z,7.75
2023-05-06T06:25:40.643Z,6.13
2023-05-06T06:28:13.462Z,9.02
2023-05-06T06:30:46.004Z,4.93
2023-05-06T06:33:18.346Z,8.80
2023-05-06T06:35:51.016Z,8.60
2023-05-06T06:38:23.345Z,6.57
2023-05-06T06:40:55.649Z,5.30
2023-05-06T06:43:27.927Z,5.33
2023-05-06T06:46:00.973Z,4.68
2023-05-06T06:48:33.304Z,6.20
2023-05-06T06:51:05.805Z,6.10
2023-05-06T06:53:38.124Z,9.07
2023-05-06T06:56:15.954Z,5.40
2023-05-06T06:58:48.269Z,5.80
2023-05-06T07:01:20.812Z,5.47
2023-05-06T07:03:53.341Z,5.28
2023-05-06T07:06:25.836Z,6.03
2023-05-06T07:08:58.349Z,5.20
2023-05-06T07:11:30.700Z,7.07
2023-05-06T07:14:03.250Z,9.17
2023-05-06T07:16:35.729Z,6.00
2023-05-06T07:19:08.507Z,6.93
2023-05-06T07:21:41.081Z,6.85
2023-05-06T07:24:13.645Z,4.80
2023-05-06T07:26:47.356Z,5.45
2023-05-06T07:29:19.814Z,5.78
2023-05-06T07:31:52.165Z,4.60
2023-05-06T07:34:24.489Z,5.33
2023-05-06T07:36:57.337Z,4.87
2023-05-06T07:39:30.005Z,3.97
2023-05-06T07:42:02.510Z,6.68
2023-05-06T07:44:37.095Z,6.95
2023-05-06T07:47:09.892Z,4.20
2023-05-06T07:49:42.624Z,5.57
2023-05-06T07:52:15.000Z,4.05
2023-05-06T07:54:47.303Z,4.43
2023-05-06T07:57:19.662Z,6.33
2023-05-06T07:59:52.828Z,7.17
2023-05-06T08:02:25.385Z,5.78
2023-05-06T08:04:57.883Z,5.05
2023-05-06T08:07:30.924Z,5.07
2023-05-06T08:10:03.992Z,5.25
2023-05-06T08:12:36.616Z,6.65
2023-05-06T08:15:11.036Z,7.10
2023-05-06T08:17:43.648Z,4.68
2023-05-06T08:20:16.041Z,3.50
2023-05-06T08:22:48.429Z,4.57
2023-05-06T08:25:20.876Z,5.10
2023-05-06T08:27:53.131Z,4.75
2023-05-06T08:30:25.630Z,4.97
2023-05-06T08:32:58.094Z,5.43
2023-05-06T08:35:30.760Z,4.15
2023-05-06T08:38:03.096Z,4.65
2023-05-06T08:40:42.872Z,7.47
2023-05-06T08:43:21.279Z,3.78
2023-05-06T08:45:55.079Z,4.43
2023-05-06T08:48:27.549Z,5.82
2023-05-06T08:51:03.449Z,4.53
2023-05-06T08:53:36.586Z,5.25
2023-05-06T08:56:12.232Z,8.10
2023-05-06T08:58:48.537Z,6.75
2023-05-06T09:01:22.375Z,4.38
2023-05-06T09:03:58.045Z,4.07
2023-05-06T09:06:30.491Z,4.40
2023-05-06T09:09:03.446Z,5.18
2023-05-06T09:11:40.106Z,3.65
2023-05-06T09:14:17.094Z,6.93
2023-05-06T09:16:53.076Z,3.50
2023-05-06T09:19:26.358Z,4.03
2023-05-06T09:21:59.810Z,3.42
2023-05-06T09:24:32.147Z,5.78
2023-05-06T09:27:04.868Z,3.58
2023-05-06T09:29:37.253Z,2.55
2023-05-06T09:32:11.392Z,5.27
2023-05-06T09:34:46.635Z,4.72
2023-05-06T09:37:20.972Z,5.22
2023-05-06T09:39:58.984Z,6.20
2023-05-06T09:42:31.546Z,5.05
2023-05-06T09:47:39.560Z,4.47
2023-05-06T09:50:13.944Z,4.00
2023-05-06T09:52:48.060Z,4.00
2023-05-06T09:55:22.291Z,3.65
2023-05-06T09:57:55.167Z,4.35
2023-05-06T10:00:30.046Z,5.20
2023-05-06T10:03:03.066Z,3.53
2023-05-06T10:05:37.647Z,4.20
2023-05-06T10:08:13.240Z,4.93
2023-05-06T10:10:49.813Z,2.55
2023-05-06T10:13:24.693Z,4.35
2023-05-06T10:16:00.270Z,4.55
2023-05-06T10:18:34.848Z,3.83
2023-05-06T10:21:14.466Z,5.18
2023-05-06T10:23:57.366Z,5.28
2023-05-06T10:26:31.035Z,4.93
2023-05-06T10:29:09.365Z,4.22
2023-05-06T10:31:49.095Z,2.88
2023-05-06T10:34:22.688Z,3.10
2023-05-06T10:36:59.036Z,3.72
2023-05-06T10:39:33.091Z,2.97
2023-05-06T10:47:59.359Z,3.78
2023-05-06T10:50:32.953Z,3.33
2023-05-06T10:53:05.373Z,3.67
2023-05-06T10:55:39.023Z,3.58
2023-05-06T10:58:16.664Z,3.45
2023-05-06T11:00:55.859Z,3.75
2023-05-06T11:03:28.442Z,3.72
2023-05-06T11:06:01.135Z,4.07
2023-05-06T11:08:34.338Z,3.15
2023-05-06T11:14:13.185Z,3.65
2023-05-06T11:16:50.629Z,2.97
2023-05-06T11:19:25.312Z,3.38
2023-05-06T11:21:59.761Z,3.03
2023-05-06T11:24:43.568Z,3.60
2023-05-06T11:27:20.855Z,2.90
2023-05-06T11:29:53.218Z,3.78
2023-05-06T11:32:29.130Z,3.10
2023-05-06T11:35:01.664Z,3.58
2023-05-06T11:37:36.469Z,4.60
2023-05-06T11:40:15.998Z,2.63
2023-05-06T11:42:48.407Z,1.92
2023-05-06T11:45:20.730Z,2.90
2023-05-06T11:47:54.663Z,2.03
2023-05-06T11:50:27.129Z,2.40
2023-05-06T11:52:59.483Z,3.47
2023-05-06T11:55:31.985Z,2.87
2023-05-06T11:58:04.290Z,2.33
2023-05-06T12:00:36.665Z,3.60
2023-05-06T12:03:14.645Z,3.83
2023-05-06T12:05:50.980Z,3.13
2023-05-06T12:08:32.723Z,2.70
2023-05-06T12:11:09.590Z,2.05
2023-05-06T12:13:43.549Z,2.65
2023-05-06T12:16:15.988Z,2.33
2023-05-06T12:18:52.773Z,2.80
2023-05-06T12:21:26.924Z,3.15
2023-05-06T12:24:00.999Z,3.17
2023-05-06T12:26:53.576Z,2.92
2023-05-06T12:29:25.873Z,4.10
2023-05-06T12:32:11.528Z,3.80
2023-05-06T12:34:43.860Z,2.97
2023-05-06T12:37:30.436Z,3.00
2023-05-06T12:40:04.382Z,2.33
2023-05-06T12:42:36.937Z,3.08
2023-05-06T12:45:16.301Z,3.28
2023-05-06T12:47:53.230Z,1.95
2023-05-06T12:50:33.209Z,3.03
2023-05-06T12:53:07.285Z,3.15
2023-05-06T12:55:43.397Z,2.40
2023-05-06T12:58:17.313Z,2.13
2023-05-06T13:00:49.884Z,2.63
2023-05-06T13:03:22.588Z,2.22
2023-05-06T13:05:55.229Z,1.92
2023-05-06T13:08:28.702Z,3.05
2023-05-06T13:11:02.902Z,3.17
2023-05-06T13:13:36.613Z,2.85
2023-05-06T13:16:10.841Z,2.22
2023-05-06T13:18:43.282Z,3.20
2023-05-06T13:21:16.026Z,3.33
2023-05-06T13:23:49.915Z,3.15
2023-05-06T13:26:23.565Z,2.78
2023-05-06T13:28:56.293Z,6.05
2023-05-06T13:31:29.906Z,2.30
2023-05-06T13:34:02.403Z,3.03
2023-05-06T13:36:35.130Z,2.75
2023-05-06T13:39:08.855Z,2.72
2023-05-06T13:41:42.856Z,2.45
2023-05-06T13:44:15.312Z,2.25
2023-05-06T13:46:48.854Z,2.05
2023-05-06T13:49:21.654Z,2.42
2023-05-06T13:51:54.059Z,2.47
2023-05-06T13:54:26.576Z,2.20
2023-05-06T13:56:58.940Z,3.45
2023-05-06T13:59:31.398Z,2.07
2023-05-06T14:02:07.237Z,3.15
2023-05-06T14:04:41.818Z,2.55
2023-05-06T14:07:14.246Z,1.77
2023-05-06T14:09:46.973Z,2.05
2023-05-06T14:12:19.445Z,1.70
2023-05-06T14:14:52.122Z,3.95
2023-05-06T14:17:24.454Z,2.13
2023-05-06T14:19:56.780Z,2.43
2023-05-06T14:22:29.326Z,1.70
2023-05-06T14:25:01.709Z,2.50
2023-05-06T14:27:34.086Z,2.40
2023-05-06T14:30:09.399Z,2.97
2023-05-06T14:32:42.186Z,3.15
2023-05-06T14:35:15.308Z,1.83
2023-05-06T14:37:47.726Z,2.08
2023-05-06T14:40:27.667Z,2.60
2023-05-06T14:43:00.576Z,2.70
2023-05-06T14:45:33.066Z,1.83
2023-05-06T14:48:05.748Z,2.38
2023-05-06T14:50:38.304Z,2.25
2023-05-06T14:53:12.547Z,1.58
2023-05-06T14:55:50.136Z,2.65
2023-05-06T14:58:22.392Z,2.55
2023-05-06T15:00:55.056Z,2.60
2023-05-06T15:03:27.436Z,2.58
2023-05-06T15:05:59.892Z,1.60
2023-05-06T15:08:32.504Z,2.35
2023-05-06T15:11:07.508Z,2.20
2023-05-06T15:13:39.869Z,1.85
2023-05-06T15:16:12.199Z,3.87
2023-05-06T15:18:46.801Z,2.28
2023-05-06T15:21:19.299Z,2.05
2023-05-06T15:23:51.823Z,3.53
2023-05-06T15:26:24.510Z,1.73
2023-05-06T15:28:56.913Z,2.40
2023-05-06T15:31:32.591Z,1.40
2023-05-06T15:34:06.452Z,1.35
2023-05-06T15:36:40.157Z,2.70
2023-05-06T15:39:13.643Z,2.10
2023-05-06T15:41:47.911Z,2.40
2023-05-06T15:44:20.924Z,2.13
2023-05-06T15:46:53.751Z,1.30
2023-05-06T15:49:51.025Z,1.25
2023-05-06T15:52:19.384Z,1.77
2023-05-06T15:57:32.321Z,2.17
2023-05-06T16:00:05.617Z,1.90
2023-05-06T16:02:38.457Z,1.90
2023-05-06T16:05:11.024Z,1.52
2023-05-06T16:07:43.709Z,2.10
2023-05-06T16:10:16.068Z,2.38
2023-05-06T16:12:48.712Z,1.97
2023-05-06T16:15:21.189Z,2.03
2023-05-06T16:17:53.624Z,1.83
2023-05-06T16:20:26.738Z,2.20
2023-05-06T16:22:59.240Z,1.90
2023-05-06T16:25:33.589Z,2.25
2023-05-06T16:28:06.651Z,2.60
2023-05-06T16:30:40.528Z,2.72
2023-05-06T16:33:13.407Z,1.52
2023-05-06T16:35:46.454Z,1.50
2023-05-06T16:38:18.960Z,1.92
2023-05-06T16:40:51.749Z,1.88
2023-05-06T16:43:24.099Z,1.85
2023-05-06T16:45:56.494Z,2.03
2023-05-06T16:48:29.518Z,1.75
2023-05-06T16:51:02.138Z,1.98
2023-05-06T16:53:34.550Z,1.83
2023-05-06T16:56:08.968Z,2.07
2023-05-06T16:58:49.973Z,1.73
2023-05-06T17:01:22.825Z,1.45
2023-05-06T17:03:55.857Z,1.60
2023-05-06T17:06:31.282Z,1.88
2023-05-06T17:09:03.990Z,1.80
2023-05-06T17:11:36.323Z,1.73
2023-05-06T17:14:09.996Z,1.98
2023-05-06T17:16:45.563Z,1.35
2023-05-06T17:19:17.887Z,1.95
2023-05-06T17:21:50.392Z,2.50
2023-05-06T17:24:22.759Z,1.85
2023-05-06T17:26:55.185Z,2.38
2023-05-06T17:29:28.301Z,1.27
2023-05-06T17:32:00.790Z,2.08
2023-05-06T17:34:35.335Z,1.98
2023-05-06T17:37:08.510Z,2.17
2023-05-06T17:39:41.077Z,1.42
2023-05-06T17:42:13.922Z,1.60
2023-05-06T17:44:46.422Z,2.10
2023-05-06T17:47:22.778Z,1.58
2023-05-06T17:49:56.123Z,2.08
2023-05-06T17:55:11.210Z,1.90
2023-05-06T17:57:47.752Z,2.83
2023-05-06T18:00:20.416Z,2.30
2023-05-06T18:02:52.948Z,2.50
2023-05-06T18:05:26.422Z,1.75
2023-05-06T18:07:58.933Z,3.08
2023-05-06T18:10:31.491Z,2.75
2023-05-06T18:13:05.920Z,1.90
2023-05-06T18:15:38.274Z,2.20
2023-05-06T18:18:10.764Z,2.03
2023-05-06T18:20:43.364Z,3.40
2023-05-06T18:23:16.178Z,2.40
2023-05-06T18:25:48.889Z,2.08
2023-05-06T18:28:21.355Z,2.63
2023-05-06T18:30:55.978Z,3.08
2023-05-06T18:33:28.534Z,2.45
2023-05-06T18:36:00.982Z,3.25
2023-05-06T18:38:33.354Z,2.63
2023-05-06T18:41:08.048Z,2.23
2023-05-06T18:43:41.439Z,3.13
2023-05-06T18:48:45.963Z,3.00
2023-05-06T18:51:20.818Z,3.07
2023-05-06T18:53:53.783Z,3.50
2023-05-06T18:56:26.569Z,2.50
2023-05-06T18:58:59.834Z,2.90
2023-05-06T19:04:04.694Z,3.05
2023-05-06T19:06:38.567Z,2.92
2023-05-06T19:09:11.360Z,3.08
2023-05-06T19:11:44.107Z,3.38
2023-05-06T19:14:16.807Z,4.55
2023-05-06T19:16:49.483Z,3.45
2023-05-06T19:19:24.397Z,3.30
2023-05-06T19:21:57.481Z,2.63
2023-05-06T19:24:31.028Z,3.10
2023-05-06T19:27:04.929Z,3.13
2023-05-06T19:29:37.889Z,2.97
2023-05-06T19:32:10.587Z,4.30
2023-05-06T19:34:43.266Z,2.63
2023-05-06T19:37:15.845Z,4.05
2023-05-06T19:39:49.628Z,2.30
2023-05-06T19:42:22.168Z,3.53
2023-05-06T19:44:55.319Z,3.00
2023-05-06T19:47:29.748Z,3.50
2023-05-06T19:50:02.109Z,3.92
2023-05-06T19:52:34.757Z,4.00
2023-05-06T19:55:07.769Z,3.45
2023-05-06T19:57:40.551Z,3.45
2023-05-06T20:00:14.053Z,4.15
2023-05-06T20:02:46.420Z,3.65
2023-05-06T20:05:18.946Z,2.83
2023-05-06T20:07:51.301Z,3.78
2023-05-06T20:10:23.914Z,3.28
2023-05-06T20:12:57.833Z,3.83
2023-05-06T20:15:31.115Z,2.63
2023-05-06T20:18:04.276Z,3.50
2023-05-06T20:20:37.946Z,3.55
2023-05-06T20:23:10.502Z,3.17
2023-05-06T20:25:43.257Z,3.85
2023-05-06T20:28:15.650Z,3.78
2023-05-06T20:30:48.356Z,3.20
2023-05-06T20:33:20.690Z,4.25
2023-05-06T20:35:53.478Z,3.10
2023-05-06T20:38:27.402Z,3.00
2023-05-06T20:41:02.882Z,2.85
2023-05-06T20:43:35.462Z,2.80
2023-05-06T20:46:07.957Z,3.33
2023-05-06T20:48:41.238Z,2.92
2023-05-06T20:51:13.832Z,3.60
2023-05-06T20:53:46.268Z,3.03
2023-05-06T20:56:26.572Z,2.72
2023-05-06T20:58:59.105Z,3.22
2023-05-06T21:01:32.222Z,3.72
2023-05-06T21:04:06.258Z,2.42
2023-05-06T21:06:39.288Z,3.35
2023-05-06T21:09:12.409Z,3.88
2023-05-06T21:11:45.336Z,3.05
2023-05-06T21:14:17.852Z,3.70
2023-05-06T21:16:50.692Z,2.58
2023-05-06T21:19:23.155Z,3.67
2023-05-06T21:21:56.767Z,2.90
2023-05-06T21:24:31.060Z,2.45
2023-05-06T21:27:03.508Z,3.70
2023-05-06T21:29:36.453Z,3.40
2023-05-06T21:32:08.903Z,3.20
2023-05-06T21:34:42.648Z,2.88
2023-05-06T21:37:15.025Z,4.15
2023-05-06T21:39:47.491Z,3.47
2023-05-06T21:42:20.207Z,2.70
2023-05-06T21:44:52.578Z,3.30
2023-05-06T21:47:25.439Z,2.87
2023-05-06T21:49:57.905Z,3.20
2023-05-06T21:52:30.995Z,3.58
2023-05-06T21:55:03.759Z,3.22
2023-05-06T21:57:36.338Z,3.58
2023-05-06T22:00:12.389Z,3.30
2023-05-06T22:02:46.361Z,3.08
2023-05-06T22:05:19.291Z,2.60
2023-05-06T22:07:52.145Z,2.72
2023-05-06T22:10:24.787Z,2.38
2023-05-06T22:12:57.230Z,3.30
2023-05-06T22:15:29.593Z,3.25
2023-05-06T22:18:01.985Z,3.03
2023-05-06T22:20:38.747Z,2.63
2023-05-06T22:23:14.798Z,3.40
2023-05-06T22:25:47.312Z,3.20
2023-05-06T22:28:20.682Z,4.32
2023-05-06T22:30:53.107Z,2.65
2023-05-06T22:33:26.509Z,2.38
2023-05-06T22:35:59.218Z,3.58
2023-05-06T22:38:31.719Z,2.72
2023-05-06T22:41:04.369Z,2.33
2023-05-06T22:43:37.362Z,2.88
2023-05-06T22:46:09.812Z,2.35
2023-05-06T22:48:44.796Z,2.65
2023-05-06T22:51:17.500Z,3.03
2023-05-06T22:53:50.022Z,2.50
2023-05-06T22:56:22.515Z,2.15
2023-05-06T22:58:57.744Z,2.72
2023-05-06T23:01:32.418Z,2.42
2023-05-06T23:04:05.717Z,2.70
2023-05-06T23:06:40.008Z,2.13
2023-05-06T23:09:13.584Z,2.70
2023-05-06T23:11:46.549Z,2.60
2023-05-06T23:14:19.684Z,2.58
2023-05-06T23:19:25.228Z,2.20
2023-05-06T23:21:58.804Z,2.90
2023-05-06T23:24:31.335Z,2.35
2023-05-06T23:27:03.973Z,3.15
2023-05-06T23:29:36.284Z,2.78
2023-05-06T23:32:08.750Z,2.65
2023-05-06T23:34:41.188Z,3.55
2023-05-06T23:37:13.593Z,2.37
2023-05-06T23:39:47.643Z,2.33
2023-05-06T23:42:21.668Z,2.60
2023-05-06T23:44:54.076Z,2.35
2023-05-06T23:47:26.505Z,2.00
2023-05-06T23:49:58.982Z,2.00
2023-05-06T23:52:31.378Z,2.92
2023-05-06T23:55:05.285Z,2.07
2023-05-06T23:57:37.958Z,2.60
